Etusivu
METAR-TAF:

METAR-TAF

Lentoasemat :

Dalton Municipal Airport

Dalton, Georgia, Yhdysvallat

Leveyspiiri: 34-43-18N, Pituuspiiri: 084-52-09W, korkeus merenpinnasta: 216 m

Tämänhetkinen sää

Tämä raportti tehtiin 19 minuuttia sitten, kello 11.55 UTC
Tuuli 3 kn kaakosta
Lämpötila 7°C
Kosteus 87%
Ilmanpaine 1019 hPa
Näkyvyys: 16.1 km
Hajanaisia pilviä 3900 ft:n korkeudessa
Pilvistä 5000 ft:n korkeudessa
sadetta

METAR: KDNN 241155Z AUTO 14003KT 10SM RA SCT039 OVC050 07/05 A3008 RMK AO2

Aika: 07:14 (12:14 UTC)


TAF: puuttuu

Säähavainnot ja -ennusteet yli 4000 lentoasemalta (METAR- ja TAF-raportit).

Käytössä olevat sääasemat on merkitty karttaan keltaisilla ja punaisilla pisteillä.

Aseta hiiri pisteen päälle nähdäksesi sääaseman nimen.

Klikkaa sitten nähdäksesi säähavainnot ja -ennusteet.

Kartan vaihtaminen: klikkaa mustalla rastilla varustettuja vihreitä pisteitä, niin voit zoomata sisään; viivalla varustettua vihreää pistettä, niin voit zoomata ulos tai vihreitä nuolia, niin pääset viereisille kartoille.


METAR-TAF: